createdAt,value
2018-11-02T00:00:24.504Z,1.37
2018-11-02T00:03:28.525Z,1.00
2018-11-02T00:06:33.855Z,1.00
2018-11-02T00:09:37.954Z,1.63
2018-11-02T00:12:42.046Z,1.30
2018-11-02T00:15:46.137Z,1.93
2018-11-02T00:18:50.553Z,1.80
2018-11-02T00:21:54.670Z,1.43
2018-11-02T00:24:58.738Z,1.17
2018-11-02T00:28:03.173Z,1.27
2018-11-02T00:31:07.598Z,1.57
2018-11-02T00:34:12.238Z,2.00
2018-11-02T00:37:16.305Z,1.77
2018-11-02T00:40:20.402Z,1.60
2018-11-02T00:43:24.478Z,1.67
2018-11-02T00:46:28.557Z,1.43
2018-11-02T00:49:33.006Z,1.80
2018-11-02T00:52:37.616Z,1.37
2018-11-02T00:55:41.510Z,2.20
2018-11-02T00:58:45.588Z,1.63
2018-11-02T01:01:49.678Z,1.90
2018-11-02T01:04:53.788Z,1.37
2018-11-02T01:07:57.894Z,2.30
2018-11-02T01:11:02.309Z,2.83
2018-11-02T01:14:06.786Z,1.70
2018-11-02T01:17:10.682Z,1.70
2018-11-02T01:20:14.792Z,1.20
2018-11-02T01:23:19.181Z,2.40
2018-11-02T01:26:23.272Z,2.40
2018-11-02T01:29:27.689Z,1.43
2018-11-02T01:32:31.789Z,1.77
2018-11-02T01:35:35.890Z,3.40
2018-11-02T01:38:39.978Z,2.00
2018-11-02T01:41:44.194Z,1.87
2018-11-02T01:44:48.313Z,1.70
2018-11-02T01:47:52.385Z,2.07
2018-11-02T01:50:57.149Z,2.63
2018-11-02T01:54:01.236Z,1.97
2018-11-02T01:57:05.475Z,1.87
2018-11-02T02:00:09.571Z,1.80
2018-11-02T02:03:13.649Z,1.20
2018-11-02T02:06:17.745Z,1.20
2018-11-02T02:09:21.836Z,2.40
2018-11-02T02:12:25.946Z,1.70
2018-11-02T02:15:30.023Z,1.43
2018-11-02T02:18:34.441Z,1.70
2018-11-02T02:21:38.537Z,1.77
2018-11-02T02:24:42.629Z,1.67
2018-11-02T02:27:46.530Z,1.70
2018-11-02T02:30:50.620Z,1.77
2018-11-02T02:33:54.701Z,1.60
2018-11-02T02:36:58.874Z,1.37
2018-11-02T02:40:02.770Z,1.50
2018-11-02T02:43:06.878Z,1.63
2018-11-02T02:46:10.950Z,1.40
2018-11-02T02:49:15.038Z,1.70
2018-11-02T02:52:19.186Z,1.37
2018-11-02T02:55:23.276Z,2.10
2018-11-02T02:58:27.350Z,1.27
2018-11-02T03:01:31.429Z,1.80
2018-11-02T03:04:35.342Z,1.00
2018-11-02T03:07:40.038Z,1.57
2018-11-02T03:10:44.312Z,1.37
2018-11-02T03:13:48.211Z,1.37
2018-11-02T03:16:52.293Z,1.00
2018-11-02T03:19:56.366Z,1.33
2018-11-02T03:23:00.461Z,1.17
2018-11-02T03:26:04.755Z,1.00
2018-11-02T03:29:09.269Z,1.03
2018-11-02T03:32:13.348Z,1.10
2018-11-02T03:35:17.419Z,1.30
2018-11-02T03:38:21.501Z,0.90
2018-11-02T03:41:25.581Z,0.63
2018-11-02T03:44:29.652Z,1.30
2018-11-02T03:47:33.753Z,1.20
2018-11-02T03:50:38.106Z,1.03
2018-11-02T03:53:42.206Z,1.07
2018-11-02T03:56:46.384Z,0.60
2018-11-02T03:59:50.805Z,1.20
2018-11-02T04:02:54.890Z,1.00
2018-11-02T04:05:58.778Z,1.17
2018-11-02T04:09:03.442Z,0.53
2018-11-02T04:12:07.750Z,1.03
2018-11-02T04:15:12.152Z,0.97
2018-11-02T04:18:16.264Z,0.67
2018-11-02T04:21:20.343Z,0.90
2018-11-02T04:24:24.425Z,1.00
2018-11-02T04:27:28.538Z,1.37
2018-11-02T04:30:32.633Z,0.83
2018-11-02T04:33:37.423Z,1.30
2018-11-02T04:36:41.549Z,1.20
2018-11-02T04:39:45.598Z,0.70
2018-11-02T04:42:49.699Z,0.83
2018-11-02T04:45:53.827Z,0.73
2018-11-02T04:48:57.918Z,0.80
2018-11-02T04:52:02.027Z,1.00
2018-11-02T04:55:07.020Z,1.20
2018-11-02T04:58:11.120Z,1.10
2018-11-02T05:01:15.297Z,1.00
2018-11-02T05:04:19.390Z,0.80
2018-11-02T05:07:23.461Z,0.60
2018-11-02T05:10:27.552Z,0.47
2018-11-02T05:13:31.796Z,0.80
2018-11-02T05:16:35.863Z,0.50
2018-11-02T05:19:39.962Z,1.20
2018-11-02T05:22:44.126Z,0.63
2018-11-02T05:25:48.258Z,0.70
2018-11-02T05:28:52.354Z,0.90
2018-11-02T05:31:56.449Z,1.13
2018-11-02T05:35:00.562Z,0.80
2018-11-02T05:38:04.693Z,1.30
2018-11-02T05:41:08.785Z,0.80
2018-11-02T05:44:12.852Z,0.77
2018-11-02T05:47:17.099Z,1.57
2018-11-02T05:50:21.052Z,1.73
2018-11-02T05:53:25.510Z,1.27
2018-11-02T05:56:29.683Z,0.77
2018-11-02T05:59:34.102Z,0.83
2018-11-02T06:02:38.221Z,1.10
2018-11-02T06:05:42.192Z,1.37
2018-11-02T06:08:46.636Z,0.93
2018-11-02T06:11:50.725Z,1.00
2018-11-02T06:14:54.805Z,1.00
2018-11-02T06:17:58.921Z,1.30
2018-11-02T06:21:03.369Z,1.20
2018-11-02T06:24:07.513Z,1.00
2018-11-02T06:27:11.618Z,1.30
2018-11-02T06:30:15.923Z,1.00
2018-11-02T06:33:20.002Z,1.30
2018-11-02T06:36:24.121Z,1.80
2018-11-02T06:39:28.454Z,1.10
2018-11-02T06:42:32.665Z,1.30
2018-11-02T06:45:36.781Z,1.30
2018-11-02T06:48:41.148Z,0.87
2018-11-02T06:51:45.242Z,1.27
2018-11-02T06:54:49.157Z,0.80
2018-11-02T06:57:53.246Z,1.90
2018-11-02T07:00:57.338Z,1.33
2018-11-02T07:04:01.466Z,1.63
2018-11-02T07:07:05.576Z,1.00
2018-11-02T07:10:10.272Z,1.57
2018-11-02T07:13:14.335Z,1.67
2018-11-02T07:16:18.409Z,1.57
2018-11-02T07:19:22.292Z,1.33
2018-11-02T07:22:26.992Z,0.90
2018-11-02T07:25:31.078Z,1.00
2018-11-02T07:28:35.190Z,1.23
2018-11-02T07:31:39.277Z,1.10
2018-11-02T07:34:43.349Z,0.67
2018-11-02T07:37:47.440Z,1.30
2018-11-02T07:40:51.774Z,0.87
2018-11-02T07:43:55.866Z,1.60
2018-11-02T07:47:00.128Z,1.70
2018-11-02T07:50:04.229Z,2.20
2018-11-02T07:53:08.323Z,1.80
2018-11-02T07:56:12.423Z,0.90
2018-11-02T07:59:16.495Z,1.50
2018-11-02T08:02:20.567Z,1.40
2018-11-02T08:05:24.657Z,1.03
2018-11-02T08:08:28.756Z,1.47
2018-11-02T08:11:32.874Z,1.20
2018-11-02T08:14:36.931Z,1.67
2018-11-02T08:17:41.850Z,1.40
2018-11-02T08:20:45.938Z,0.90
2018-11-02T08:23:49.808Z,0.83
2018-11-02T08:26:54.074Z,0.80
2018-11-02T08:29:57.967Z,0.47
2018-11-02T08:33:01.862Z,0.70
2018-11-02T08:36:06.171Z,1.43
2018-11-02T08:39:11.554Z,1.10
2018-11-02T08:42:15.445Z,1.07
2018-11-02T08:45:19.338Z,0.93
2018-11-02T08:48:23.409Z,1.00
2018-11-02T08:51:27.285Z,0.80
2018-11-02T08:54:31.176Z,1.00
2018-11-02T08:57:35.118Z,0.93
2018-11-02T09:00:39.185Z,0.63
2018-11-02T09:03:43.269Z,1.27
2018-11-02T09:06:47.182Z,1.40
2018-11-02T09:09:51.090Z,1.30
2018-11-02T09:12:54.953Z,1.07
2018-11-02T09:15:58.868Z,1.47
2018-11-02T09:19:02.990Z,1.20
2018-11-02T09:22:07.090Z,0.93
2018-11-02T09:25:11.486Z,0.93
2018-11-02T09:28:15.376Z,1.30
2018-11-02T09:31:19.310Z,1.00
2018-11-02T09:34:23.203Z,0.70
2018-11-02T09:37:27.305Z,0.73
2018-11-02T09:40:31.867Z,0.90
2018-11-02T09:43:35.821Z,0.53
2018-11-02T09:46:39.905Z,0.80
2018-11-02T09:49:43.997Z,1.43
2018-11-02T09:52:48.090Z,0.60
2018-11-02T09:55:52.182Z,0.87
2018-11-02T09:58:56.282Z,0.60
2018-11-02T10:02:00.761Z,0.60
2018-11-02T10:05:05.296Z,0.70
2018-11-02T10:08:09.385Z,0.30
2018-11-02T10:11:13.817Z,0.60
2018-11-02T10:14:18.133Z,0.63
2018-11-02T10:17:22.236Z,0.50
2018-11-02T10:20:26.328Z,0.30
2018-11-02T10:23:30.765Z,0.40
2018-11-02T10:26:35.079Z,0.30
2018-11-02T10:29:39.410Z,0.67
2018-11-02T10:32:45.219Z,0.63
2018-11-02T10:35:49.621Z,0.40
2018-11-02T10:38:54.625Z,0.50
2018-11-02T10:42:00.577Z,0.30
2018-11-02T10:45:05.273Z,0.30
2018-11-02T10:48:09.596Z,0.60
2018-11-02T10:51:14.092Z,0.43
2018-11-02T10:54:18.167Z,0.40
2018-11-02T10:57:22.225Z,0.47
2018-11-02T11:00:32.361Z,0.30
2018-11-02T11:03:36.714Z,0.20
2018-11-02T11:06:40.802Z,0.20
2018-11-02T11:09:44.906Z,0.37
2018-11-02T11:12:49.708Z,0.30
2018-11-02T11:15:53.753Z,0.30
2018-11-02T11:18:57.862Z,0.30
2018-11-02T11:22:01.969Z,0.23
2018-11-02T11:25:08.030Z,0.40
2018-11-02T11:28:12.139Z,0.20
2018-11-02T11:31:16.237Z,0.20
2018-11-02T11:34:20.669Z,0.50
2018-11-02T11:37:25.102Z,0.30
2018-11-02T11:40:29.538Z,0.20
2018-11-02T11:43:33.634Z,0.27
2018-11-02T11:46:37.741Z,0.30
2018-11-02T11:49:42.177Z,0.30
2018-11-02T11:52:49.157Z,0.30
2018-11-02T11:55:53.278Z,0.40
2018-11-02T11:58:57.697Z,0.47
2018-11-02T12:02:01.865Z,0.30
2018-11-02T12:05:07.293Z,0.40
2018-11-02T12:08:11.753Z,0.30
2018-11-02T12:11:15.845Z,0.40
2018-11-02T12:14:19.946Z,0.30
2018-11-02T12:17:24.374Z,0.40
2018-11-02T12:20:29.496Z,0.20
2018-11-02T12:23:33.656Z,0.30
2018-11-02T12:26:38.025Z,0.30
2018-11-02T12:29:42.126Z,0.40
2018-11-02T12:32:46.609Z,0.30
2018-11-02T12:35:50.703Z,0.20
2018-11-02T12:38:54.803Z,0.30
2018-11-02T12:41:58.881Z,0.20
2018-11-02T12:45:03.042Z,0.20
2018-11-02T12:48:07.585Z,0.30
2018-11-02T12:51:11.554Z,0.30
2018-11-02T12:54:15.677Z,0.30
2018-11-02T12:57:19.770Z,0.20
2018-11-02T13:00:25.479Z,0.30
2018-11-02T13:03:29.560Z,0.30
2018-11-02T13:06:33.672Z,0.43
2018-11-02T13:09:37.874Z,0.30
2018-11-02T13:12:42.549Z,0.30
2018-11-02T13:15:46.706Z,0.30
2018-11-02T13:18:50.760Z,0.40
2018-11-02T13:21:54.948Z,0.70
2018-11-02T13:24:58.954Z,0.30
2018-11-02T13:28:03.392Z,0.40
2018-11-02T13:31:07.522Z,0.43
2018-11-02T13:34:11.593Z,0.30
2018-11-02T13:37:15.799Z,0.40
2018-11-02T13:40:20.019Z,0.40
2018-11-02T13:43:24.124Z,0.40
2018-11-02T13:46:28.653Z,0.80
2018-11-02T13:49:32.733Z,0.30
2018-11-02T13:52:36.814Z,0.20
2018-11-02T13:55:41.138Z,0.30
2018-11-02T13:58:45.286Z,0.40
2018-11-02T14:01:49.673Z,0.30
2018-11-02T14:04:53.800Z,0.30
2018-11-02T14:07:57.893Z,0.30
2018-11-02T14:11:01.997Z,0.30
2018-11-02T14:14:06.348Z,0.30
2018-11-02T14:17:11.026Z,0.30
2018-11-02T14:20:15.459Z,0.50
2018-11-02T14:23:19.566Z,0.30
2018-11-02T14:26:23.641Z,0.40
2018-11-02T14:29:27.829Z,0.30
2018-11-02T14:32:31.842Z,0.30
2018-11-02T14:35:35.945Z,0.30
2018-11-02T14:38:40.143Z,0.30
2018-11-02T14:41:44.926Z,0.37
2018-11-02T14:44:49.034Z,0.27
2018-11-02T14:47:53.125Z,0.50
2018-11-02T14:50:57.227Z,0.40
2018-11-02T14:54:01.442Z,0.33
2018-11-02T14:57:05.613Z,0.30
2018-11-02T15:00:10.965Z,0.33
2018-11-02T15:03:15.078Z,0.30
2018-11-02T15:06:19.530Z,0.50
2018-11-02T15:09:23.640Z,0.30
2018-11-02T15:12:27.737Z,0.43
2018-11-02T15:15:31.833Z,0.50
2018-11-02T15:18:35.936Z,1.20
2018-11-02T15:21:40.040Z,0.90
2018-11-02T15:24:44.129Z,0.67
2018-11-02T15:27:48.241Z,0.90
2018-11-02T15:30:52.323Z,0.60
2018-11-02T15:33:56.458Z,0.70
2018-11-02T15:37:00.654Z,0.60
2018-11-02T15:40:05.510Z,0.40
2018-11-02T15:43:09.586Z,0.60
2018-11-02T15:46:13.677Z,0.60
2018-11-02T15:49:17.768Z,0.50
2018-11-02T15:52:21.849Z,0.40
2018-11-02T15:55:25.926Z,0.37
2018-11-02T15:58:30.357Z,0.50
2018-11-02T16:01:34.698Z,0.80
2018-11-02T16:04:38.811Z,0.50
2018-11-02T16:07:43.242Z,0.40
2018-11-02T16:10:47.337Z,0.30
2018-11-02T16:13:51.601Z,0.50
2018-11-02T16:16:55.694Z,0.43
2018-11-02T16:19:59.835Z,0.60
2018-11-02T16:23:04.217Z,0.73
2018-11-02T16:26:08.678Z,0.57
2018-11-02T16:29:12.753Z,0.60
2018-11-02T16:32:16.830Z,0.30
2018-11-02T16:35:21.477Z,0.40
2018-11-02T16:38:25.889Z,0.40
2018-11-02T16:41:30.300Z,0.77
2018-11-02T16:44:34.728Z,0.40
2018-11-02T16:47:39.021Z,0.30
2018-11-02T16:50:43.165Z,0.30
2018-11-02T16:53:47.253Z,1.07
2018-11-02T16:56:51.334Z,0.77
2018-11-02T16:59:55.409Z,0.43
2018-11-02T17:02:59.838Z,0.30
2018-11-02T17:06:04.282Z,0.40
2018-11-02T17:09:10.619Z,0.50
2018-11-02T17:12:14.672Z,0.30
2018-11-02T17:15:19.169Z,0.50
2018-11-02T17:18:23.234Z,0.40
2018-11-02T17:21:27.565Z,0.37
2018-11-02T17:24:31.648Z,0.20
2018-11-02T17:27:36.430Z,0.40
2018-11-02T17:30:40.506Z,0.30
2018-11-02T17:33:44.585Z,0.33
2018-11-02T17:36:48.994Z,0.40
2018-11-02T17:39:53.064Z,0.50
2018-11-02T17:42:57.129Z,0.30
2018-11-02T17:46:01.217Z,0.30
2018-11-02T17:49:05.289Z,0.50
2018-11-02T17:52:09.372Z,0.33
2018-11-02T17:55:13.443Z,0.30
2018-11-02T17:58:17.535Z,0.40
2018-11-02T18:01:21.601Z,0.60
2018-11-02T18:04:26.025Z,0.33
2018-11-02T18:07:30.099Z,0.40
2018-11-02T18:10:34.154Z,0.30
2018-11-02T18:13:38.226Z,0.40
2018-11-02T18:16:42.301Z,0.30
2018-11-02T18:19:46.383Z,0.60
2018-11-02T18:22:50.449Z,0.67
2018-11-02T18:25:54.533Z,0.43
2018-11-02T18:28:58.606Z,0.40
2018-11-02T18:32:02.693Z,0.30
2018-11-02T18:35:07.330Z,0.70
2018-11-02T18:38:11.361Z,0.50
2018-11-02T18:41:15.446Z,0.70
2018-11-02T18:44:19.508Z,0.40
2018-11-02T18:47:27.818Z,0.53
2018-11-02T18:50:31.843Z,0.80
2018-11-02T18:53:35.937Z,0.70
2018-11-02T18:56:40.015Z,0.77
2018-11-02T18:59:44.090Z,0.47
2018-11-02T19:02:48.492Z,0.60
2018-11-02T19:05:52.591Z,0.57
2018-11-02T19:08:56.969Z,0.60
2018-11-02T19:12:01.055Z,0.30
2018-11-02T19:15:06.761Z,1.43
2018-11-02T19:18:10.847Z,0.60
2018-11-02T19:21:15.521Z,0.40
2018-11-02T19:24:19.581Z,0.53
2018-11-02T19:27:23.693Z,0.90
2018-11-02T19:30:27.730Z,1.03
2018-11-02T19:33:31.815Z,0.60
2018-11-02T19:36:35.953Z,0.40
2018-11-02T19:39:40.361Z,0.80
2018-11-02T19:42:44.549Z,0.60
2018-11-02T19:45:49.219Z,0.40
2018-11-02T19:48:53.317Z,0.67
2018-11-02T19:51:57.701Z,0.47
2018-11-02T19:55:01.871Z,0.60
2018-11-02T19:58:06.035Z,0.80
2018-11-02T20:01:10.262Z,0.50
2018-11-02T20:04:14.276Z,0.60
2018-11-02T20:07:18.638Z,0.70
2018-11-02T20:10:22.702Z,0.60
2018-11-02T20:13:27.124Z,0.40
2018-11-02T20:16:31.201Z,0.70
2018-11-02T20:19:35.265Z,0.53
2018-11-02T20:22:39.347Z,0.70
2018-11-02T20:25:43.498Z,0.70
2018-11-02T20:28:47.847Z,0.37
2018-11-02T20:31:52.007Z,1.07
2018-11-02T20:34:56.346Z,0.63
2018-11-02T20:38:00.418Z,0.47
2018-11-02T20:41:04.781Z,0.40
2018-11-02T20:44:08.861Z,1.00
2018-11-02T20:47:12.947Z,0.50
2018-11-02T20:50:17.529Z,0.47
2018-11-02T20:53:21.635Z,0.60
2018-11-02T20:56:25.688Z,0.40
2018-11-02T20:59:30.045Z,1.03
2018-11-02T21:02:34.180Z,0.50
2018-11-02T21:05:38.224Z,0.53
2018-11-02T21:08:42.720Z,0.30
2018-11-02T21:11:46.698Z,0.50
2018-11-02T21:14:50.947Z,0.50
2018-11-02T21:17:55.044Z,0.60
2018-11-02T21:20:59.448Z,0.70
2018-11-02T21:24:03.606Z,0.50
2018-11-02T21:27:08.344Z,1.03
2018-11-02T21:30:15.334Z,0.50
2018-11-02T21:33:19.417Z,0.77
2018-11-02T21:36:23.494Z,0.50
2018-11-02T21:39:27.674Z,0.37
2018-11-02T21:42:32.090Z,0.47
2018-11-02T21:45:36.170Z,0.57
2018-11-02T21:48:40.330Z,0.37
2018-11-02T21:51:44.505Z,0.63
2018-11-02T21:54:49.011Z,0.43
2018-11-02T21:57:53.082Z,0.70
2018-11-02T22:00:57.409Z,0.80
2018-11-02T22:04:01.817Z,2.40
2018-11-02T22:07:05.914Z,0.90
2018-11-02T22:10:10.861Z,0.80
2018-11-02T22:13:14.944Z,0.40
2018-11-02T22:16:19.024Z,0.67
2018-11-02T22:19:23.119Z,0.50
2018-11-02T22:22:26.983Z,0.70
2018-11-02T22:25:31.090Z,0.50
2018-11-02T22:28:35.183Z,0.40
2018-11-02T22:31:39.268Z,0.43
2018-11-02T22:34:43.370Z,0.50
2018-11-02T22:37:47.459Z,0.70
2018-11-02T22:40:51.536Z,0.67
2018-11-02T22:43:55.637Z,0.60
2018-11-02T22:46:59.777Z,0.33
2018-11-02T22:50:04.117Z,0.33
2018-11-02T22:53:08.196Z,0.37
2018-11-02T22:56:12.276Z,0.70
2018-11-02T22:59:16.355Z,0.67
2018-11-02T23:02:20.782Z,0.50
2018-11-02T23:05:25.249Z,0.30
2018-11-02T23:08:29.998Z,0.30
2018-11-02T23:11:34.044Z,0.50
2018-11-02T23:14:38.125Z,0.87
2018-11-02T23:17:42.522Z,0.83
2018-11-02T23:20:46.979Z,0.67
2018-11-02T23:23:51.423Z,0.40
2018-11-02T23:26:55.537Z,0.50
2018-11-02T23:29:59.722Z,0.43
2018-11-02T23:33:04.055Z,0.30
2018-11-02T23:36:08.480Z,0.83
2018-11-02T23:39:12.550Z,0.40
2018-11-02T23:42:16.993Z,0.40
2018-11-02T23:45:21.403Z,0.50
2018-11-02T23:48:25.486Z,0.40
2018-11-02T23:51:29.570Z,0.43
2018-11-02T23:54:33.657Z,0.50
2018-11-02T23:57:37.841Z,0.50
